createdAt,value
2023-04-27T00:00:27.052Z,1863.00
2023-04-27T00:01:27.067Z,1848.00
2023-04-27T00:02:27.191Z,1847.00
2023-04-27T00:03:27.287Z,1834.00
2023-04-27T00:04:27.336Z,1843.00
2023-04-27T00:05:27.184Z,1834.00
2023-04-27T00:06:27.056Z,1847.00
2023-04-27T00:07:27.092Z,1832.00
2023-04-27T00:08:27.094Z,1842.00
2023-04-27T00:09:27.107Z,1843.00
2023-04-27T00:10:27.120Z,1835.00
2023-04-27T00:11:27.084Z,1831.00
2023-04-27T00:12:27.098Z,1827.00
2023-04-27T00:13:27.100Z,1846.00
2023-04-27T00:14:27.114Z,1830.00
2023-04-27T00:15:27.123Z,1838.00
2023-04-27T00:16:27.129Z,1826.00
2023-04-27T00:17:27.100Z,1826.00
2023-04-27T00:18:27.122Z,1833.00
2023-04-27T00:19:27.122Z,1833.00
2023-04-27T00:20:27.500Z,1819.00
2023-04-27T00:21:27.146Z,1825.00
2023-04-27T00:22:27.143Z,1830.00
2023-04-27T00:23:27.161Z,1826.00
2023-04-27T00:24:27.193Z,1827.00
2023-04-27T00:25:27.158Z,1806.00
2023-04-27T00:26:27.182Z,1816.00
2023-04-27T00:27:27.143Z,1817.00
2023-04-27T00:28:27.199Z,1816.00
2023-04-27T00:29:27.204Z,1812.00
2023-04-27T00:30:27.457Z,1819.00
2023-04-27T00:31:27.205Z,1798.00
2023-04-27T00:32:27.192Z,1800.00
2023-04-27T00:33:27.165Z,1799.00
2023-04-27T00:34:27.176Z,1796.00
2023-04-27T00:35:27.541Z,1784.00
2023-04-27T00:36:27.196Z,1803.00
2023-04-27T00:37:27.189Z,1800.00
2023-04-27T00:38:27.198Z,1784.00
2023-04-27T00:39:27.214Z,1787.00
2023-04-27T00:40:27.538Z,1789.00
2023-04-27T00:41:27.180Z,1774.00
2023-04-27T00:42:27.240Z,1769.00
2023-04-27T00:43:27.203Z,1775.00
2023-04-27T00:44:27.204Z,1772.00
2023-04-27T00:45:27.251Z,1759.00
2023-04-27T00:46:27.309Z,1767.00
2023-04-27T00:47:27.280Z,1762.00
2023-04-27T00:48:27.228Z,1776.00
2023-04-27T00:49:27.281Z,1752.00
2023-04-27T00:50:27.288Z,1760.00
2023-04-27T00:51:27.301Z,1769.00
2023-04-27T00:52:27.305Z,1766.00
2023-04-27T00:53:27.302Z,1751.00
2023-04-27T00:54:27.317Z,1753.00
2023-04-27T00:55:27.329Z,1744.00
2023-04-27T00:56:27.348Z,1741.00
2023-04-27T00:57:27.322Z,1752.00
2023-04-27T00:58:27.336Z,1743.00
2023-04-27T00:59:27.328Z,1743.00
2023-04-27T01:00:27.345Z,1736.00
2023-04-27T01:01:27.440Z,1730.00
2023-04-27T01:02:27.463Z,1740.00
2023-04-27T01:03:27.558Z,1731.00
2023-04-27T01:04:27.465Z,1734.00
2023-04-27T01:05:27.384Z,1732.00
2023-04-27T01:06:27.387Z,1726.00
2023-04-27T01:07:27.433Z,1719.00
2023-04-27T01:08:27.467Z,1713.00
2023-04-27T01:09:27.414Z,1709.00
2023-04-27T01:10:27.500Z,1716.00
2023-04-27T01:11:27.425Z,1716.00
2023-04-27T01:12:27.468Z,1716.00
2023-04-27T01:13:27.456Z,1703.00
2023-04-27T01:14:27.468Z,1708.00
2023-04-27T01:15:27.488Z,1716.00
2023-04-27T01:16:27.524Z,1700.00
2023-04-27T01:17:27.550Z,1709.00
2023-04-27T01:18:27.500Z,1710.00
2023-04-27T01:19:27.511Z,1692.00
2023-04-27T01:20:27.520Z,1693.00
2023-04-27T01:21:27.592Z,1696.00
2023-04-27T01:22:27.586Z,1682.00
2023-04-27T01:23:27.536Z,1686.00
2023-04-27T01:24:27.578Z,1698.00
2023-04-27T01:25:27.554Z,1681.00
2023-04-27T01:26:27.625Z,1691.00
2023-04-27T01:27:27.553Z,1670.00
2023-04-27T01:28:27.586Z,1680.00
2023-04-27T01:29:27.630Z,1679.00
2023-04-27T01:30:27.646Z,1680.00
2023-04-27T01:31:27.610Z,1664.00
2023-04-27T01:32:27.655Z,1656.00
2023-04-27T01:33:27.609Z,1672.00
2023-04-27T01:34:27.652Z,1663.00
2023-04-27T01:35:28.479Z,1653.00
2023-04-27T01:36:27.753Z,1663.00
2023-04-27T01:37:27.697Z,1648.00
2023-04-27T01:38:27.670Z,1661.00
2023-04-27T01:39:27.693Z,1662.00
2023-04-27T01:40:27.766Z,1644.00
2023-04-27T01:41:27.737Z,1648.00
2023-04-27T01:42:27.703Z,1655.00
2023-04-27T01:43:27.757Z,1647.00
2023-04-27T01:44:27.768Z,1650.00
2023-04-27T01:45:27.776Z,1644.00
2023-04-27T01:46:27.810Z,1650.00
2023-04-27T01:47:27.903Z,1645.00
2023-04-27T01:48:27.795Z,1649.00
2023-04-27T01:49:27.815Z,1633.00
2023-04-27T01:50:27.871Z,1637.00
2023-04-27T01:51:27.875Z,1636.00
2023-04-27T01:52:27.894Z,1632.00
2023-04-27T01:53:27.879Z,1625.00
2023-04-27T01:54:28.797Z,1628.00
2023-04-27T01:55:27.926Z,1625.00
2023-04-27T01:56:27.914Z,1615.00
2023-04-27T01:57:27.880Z,1625.00
2023-04-27T01:58:27.926Z,1622.00
2023-04-27T01:59:27.935Z,1616.00
2023-04-27T02:00:27.899Z,1611.00
2023-04-27T02:01:27.993Z,1615.00
2023-04-27T02:02:27.985Z,1614.00
2023-04-27T02:03:28.107Z,1606.00
2023-04-27T02:04:28.010Z,1617.00
2023-04-27T02:05:28.068Z,1610.00
2023-04-27T02:06:27.926Z,1591.00
2023-04-27T02:07:28.016Z,1594.00
2023-04-27T02:08:27.958Z,1596.00
2023-04-27T02:09:27.928Z,1597.00
2023-04-27T02:10:27.943Z,1595.00
2023-04-27T02:11:27.983Z,1587.00
2023-04-27T02:12:27.936Z,1591.00
2023-04-27T02:13:27.953Z,1586.00
2023-04-27T02:14:27.946Z,1589.00
2023-04-27T02:15:27.960Z,1582.00
2023-04-27T02:16:28.006Z,1593.00
2023-04-27T02:17:28.048Z,1599.00
2023-04-27T02:18:27.992Z,1582.00
2023-04-27T02:19:28.021Z,1583.00
2023-04-27T02:20:28.064Z,1583.00
2023-04-27T02:21:28.045Z,1581.00
2023-04-27T02:22:28.083Z,1567.00
2023-04-27T02:23:28.091Z,1576.00
2023-04-27T02:24:28.102Z,1579.00
2023-04-27T02:25:28.145Z,1557.00
2023-04-27T02:26:28.107Z,1580.00
2023-04-27T02:27:28.195Z,1584.00
2023-04-27T02:28:28.198Z,1574.00
2023-04-27T02:29:28.147Z,1561.00
2023-04-27T02:30:28.209Z,1571.00
2023-04-27T02:31:28.199Z,1572.00
2023-04-27T02:32:28.221Z,1569.00
2023-04-27T02:33:28.261Z,1574.00
2023-04-27T02:34:28.275Z,1557.00
2023-04-27T02:35:28.282Z,1561.00
2023-04-27T02:36:28.286Z,1554.00
2023-04-27T02:37:28.302Z,1554.00
2023-04-27T02:38:28.329Z,1554.00
2023-04-27T02:39:28.284Z,1552.00
2023-04-27T02:40:28.349Z,1548.00
2023-04-27T02:41:28.374Z,1543.00
2023-04-27T02:42:28.342Z,1563.00
2023-04-27T02:43:28.391Z,1547.00
2023-04-27T02:44:28.413Z,1548.00
2023-04-27T02:45:28.449Z,1551.00
2023-04-27T02:46:28.541Z,1534.00
2023-04-27T02:47:28.519Z,1537.00
2023-04-27T02:48:28.507Z,1541.00
2023-04-27T02:49:28.503Z,1542.00
2023-04-27T02:50:28.510Z,1534.00
2023-04-27T02:51:28.517Z,1530.00
2023-04-27T02:52:28.544Z,1534.00
2023-04-27T02:53:28.553Z,1539.00
2023-04-27T02:54:28.569Z,1531.00
2023-04-27T02:55:28.596Z,1520.00
2023-04-27T02:56:28.609Z,1515.00
2023-04-27T02:57:28.670Z,1511.00
2023-04-27T02:58:28.661Z,1514.00
2023-04-27T02:59:28.661Z,1526.00
2023-04-27T03:00:28.708Z,1514.00
2023-04-27T03:01:28.740Z,1524.00
2023-04-27T03:02:28.876Z,1522.00
2023-04-27T03:03:28.980Z,1529.00
2023-04-27T03:04:29.014Z,1521.00
2023-04-27T03:05:28.804Z,1525.00
2023-04-27T03:06:28.835Z,1512.00
2023-04-27T03:07:28.827Z,1522.00
2023-04-27T03:08:28.888Z,1521.00
2023-04-27T03:09:28.897Z,1510.00
2023-04-27T03:10:28.956Z,1502.00
2023-04-27T03:11:28.956Z,1516.00
2023-04-27T03:12:28.960Z,1510.00
2023-04-27T03:13:28.962Z,1516.00
2023-04-27T03:14:29.022Z,1527.00
2023-04-27T03:15:29.044Z,1510.00
2023-04-27T03:16:29.097Z,1510.00
2023-04-27T03:17:29.153Z,1498.00
2023-04-27T03:18:29.123Z,1507.00
2023-04-27T03:19:29.165Z,1510.00
2023-04-27T03:20:29.179Z,1506.00
2023-04-27T03:21:29.191Z,1498.00
2023-04-27T03:22:29.234Z,1495.00
2023-04-27T03:23:29.301Z,1499.00
2023-04-27T03:24:29.240Z,1498.00
2023-04-27T03:25:29.534Z,1494.00
2023-04-27T03:26:29.293Z,1493.00
2023-04-27T03:27:29.361Z,1489.00
2023-04-27T03:28:29.430Z,1496.00
2023-04-27T03:29:29.423Z,1484.00
2023-04-27T03:30:29.428Z,1498.00
2023-04-27T03:31:29.484Z,1481.00
2023-04-27T03:32:29.548Z,1485.00
2023-04-27T03:33:29.518Z,1482.00
2023-04-27T03:34:29.513Z,1484.00
2023-04-27T03:35:29.530Z,1474.00
2023-04-27T03:36:29.571Z,1467.00
2023-04-27T03:37:29.566Z,1483.00
2023-04-27T03:38:29.614Z,1478.00
2023-04-27T03:39:29.628Z,1477.00
2023-04-27T03:40:29.753Z,1480.00
2023-04-27T03:41:29.676Z,1470.00
2023-04-27T03:42:29.689Z,1467.00
2023-04-27T03:43:29.722Z,1475.00
2023-04-27T03:44:29.760Z,1459.00
2023-04-27T03:45:29.801Z,1473.00
2023-04-27T03:46:29.875Z,1455.00
2023-04-27T03:47:29.848Z,1464.00
2023-04-27T03:48:29.839Z,1465.00
2023-04-27T03:49:29.861Z,1454.00
2023-04-27T03:50:30.247Z,1453.00
2023-04-27T03:51:30.008Z,1466.00
2023-04-27T03:52:29.960Z,1463.00
2023-04-27T03:53:29.952Z,1459.00
2023-04-27T03:54:29.973Z,1461.00
2023-04-27T03:55:30.594Z,1461.00
2023-04-27T03:56:30.040Z,1466.00
2023-04-27T03:57:30.056Z,1459.00
2023-04-27T03:58:30.056Z,1463.00
2023-04-27T03:59:30.111Z,1463.00
2023-04-27T04:00:30.107Z,1451.00
2023-04-27T04:01:30.153Z,1461.00
2023-04-27T04:02:30.355Z,1453.00
2023-04-27T04:03:30.354Z,1444.00
2023-04-27T04:04:30.425Z,1459.00
2023-04-27T04:05:30.553Z,1454.00
2023-04-27T04:06:30.307Z,1442.00
2023-04-27T04:07:30.289Z,1450.00
2023-04-27T04:08:30.378Z,1447.00
2023-04-27T04:09:30.377Z,1429.00
2023-04-27T04:10:30.419Z,1438.00
2023-04-27T04:11:30.444Z,1447.00
2023-04-27T04:12:30.505Z,1433.00
2023-04-27T04:13:30.505Z,1433.00
2023-04-27T04:14:30.574Z,1421.00
2023-04-27T04:15:30.662Z,1428.00
2023-04-27T04:16:30.681Z,1435.00
2023-04-27T04:17:30.714Z,1420.00
2023-04-27T04:18:30.756Z,1429.00
2023-04-27T04:19:30.754Z,1425.00
2023-04-27T04:20:31.073Z,1425.00
2023-04-27T04:21:30.827Z,1423.00
2023-04-27T04:22:30.846Z,1423.00
2023-04-27T04:23:30.883Z,1417.00
2023-04-27T04:24:30.896Z,1419.00
2023-04-27T04:25:30.949Z,1412.00
2023-04-27T04:26:30.951Z,1415.00
2023-04-27T04:27:30.957Z,1404.00
2023-04-27T04:28:31.018Z,1406.00
2023-04-27T04:29:31.033Z,1411.00
2023-04-27T04:30:31.091Z,1405.00
2023-04-27T04:31:31.200Z,1409.00
2023-04-27T04:32:31.214Z,1394.00
2023-04-27T04:33:31.164Z,1395.00
2023-04-27T04:34:31.236Z,1401.00
2023-04-27T04:35:31.258Z,1399.00
2023-04-27T04:36:31.272Z,1395.00
2023-04-27T04:37:31.296Z,1391.00
2023-04-27T04:38:31.343Z,1387.00
2023-04-27T04:39:31.349Z,1402.00
2023-04-27T04:40:31.356Z,1374.00
2023-04-27T04:41:31.406Z,1385.00
2023-04-27T04:42:31.462Z,1375.00
2023-04-27T04:43:31.554Z,1384.00
2023-04-27T04:44:31.490Z,1380.00
2023-04-27T04:45:31.539Z,1377.00
2023-04-27T04:46:31.592Z,1392.00
2023-04-27T04:47:31.629Z,1374.00
2023-04-27T04:48:31.607Z,1381.00
2023-04-27T04:49:31.634Z,1374.00
2023-04-27T04:50:31.691Z,1379.00
2023-04-27T04:51:31.701Z,1367.00
2023-04-27T04:52:31.701Z,1370.00
2023-04-27T04:53:31.766Z,1361.00
2023-04-27T04:54:31.795Z,1312.00
2023-04-27T04:55:31.832Z,1266.00
2023-04-27T04:56:31.867Z,1237.00
2023-04-27T04:57:31.925Z,1216.00
2023-04-27T04:58:31.954Z,1181.00
2023-04-27T04:59:32.126Z,1155.00
2023-04-27T05:00:32.078Z,1126.00
2023-04-27T05:01:32.176Z,1111.00
2023-04-27T05:02:32.267Z,1087.00
2023-04-27T05:03:32.335Z,1053.00
2023-04-27T05:04:32.565Z,1025.00
2023-04-27T05:05:32.385Z,1009.00
2023-04-27T05:06:32.416Z,983.00
2023-04-27T05:07:32.466Z,1027.00
2023-04-27T05:08:32.572Z,1021.00
2023-04-27T05:09:32.691Z,980.00
2023-04-27T05:10:33.108Z,925.00
2023-04-27T05:11:32.753Z,907.00
2023-04-27T05:12:32.801Z,896.00
2023-04-27T05:13:32.860Z,905.00
2023-04-27T05:14:32.909Z,899.00
2023-04-27T05:15:32.935Z,991.00
2023-04-27T05:16:32.985Z,934.00
2023-04-27T05:17:33.025Z,994.00
2023-04-27T05:18:33.049Z,957.00
2023-04-27T05:19:33.093Z,881.00
2023-04-27T05:20:33.111Z,897.00
2023-04-27T05:21:33.175Z,915.00
2023-04-27T05:22:33.228Z,908.00
2023-04-27T05:23:33.285Z,930.00
2023-04-27T05:24:33.358Z,959.00
2023-04-27T05:25:33.332Z,967.00
2023-04-27T05:26:33.355Z,949.00
2023-04-27T05:27:33.451Z,989.00
2023-04-27T05:28:33.483Z,1015.00
2023-04-27T05:29:33.540Z,1024.00
2023-04-27T05:30:33.580Z,1042.00
2023-04-27T05:31:33.752Z,1029.00
2023-04-27T05:32:33.809Z,1056.00
2023-04-27T05:33:33.746Z,1065.00
2023-04-27T05:34:33.773Z,1054.00
2023-04-27T05:35:34.087Z,1056.00
2023-04-27T05:36:33.899Z,1057.00
2023-04-27T05:37:34.326Z,1051.00
2023-04-27T05:38:34.311Z,1064.00
2023-04-27T05:39:34.056Z,1054.00
2023-04-27T05:40:34.100Z,1056.00
2023-04-27T05:41:34.139Z,1082.00
2023-04-27T05:42:34.244Z,1079.00
2023-04-27T05:43:34.258Z,1083.00
2023-04-27T05:44:34.374Z,1071.00
2023-04-27T05:45:34.515Z,1085.00
2023-04-27T05:46:35.389Z,1077.00
2023-04-27T05:47:34.553Z,1124.00
2023-04-27T05:48:34.460Z,1195.00
2023-04-27T05:49:34.442Z,1175.00
2023-04-27T05:50:34.445Z,1208.00
2023-04-27T05:51:34.447Z,1222.00
2023-04-27T05:52:36.352Z,1242.00
2023-04-27T05:53:34.422Z,1246.00
2023-04-27T05:54:34.440Z,1268.00
2023-04-27T05:55:34.470Z,1291.00
2023-04-27T05:56:34.384Z,1346.00
2023-04-27T05:57:34.503Z,1462.00
2023-04-27T05:58:34.476Z,1452.00
2023-04-27T05:59:34.420Z,1483.00
2023-04-27T06:00:34.472Z,1517.00
2023-04-27T06:01:34.453Z,1531.00
2023-04-27T06:02:34.499Z,1605.00
2023-04-27T06:03:34.543Z,1669.00
2023-04-27T06:04:34.370Z,1606.00
2023-04-27T06:05:34.462Z,1696.00
2023-04-27T06:06:34.300Z,1734.00
2023-04-27T06:07:34.314Z,1816.00
2023-04-27T06:08:34.328Z,1814.00
2023-04-27T06:09:34.299Z,1799.00
2023-04-27T06:10:34.298Z,1804.00
2023-04-27T06:11:34.264Z,1801.00
2023-04-27T06:12:34.274Z,1784.00
2023-04-27T06:13:34.284Z,1795.00
2023-04-27T06:14:34.256Z,1787.00
2023-04-27T06:15:34.319Z,1764.00
2023-04-27T06:16:34.302Z,1786.00
2023-04-27T06:17:34.262Z,1785.00
2023-04-27T06:18:34.238Z,1777.00
2023-04-27T06:19:34.232Z,1758.00
2023-04-27T06:20:34.603Z,1767.00
2023-04-27T06:21:34.225Z,1778.00
2023-04-27T06:22:34.229Z,1781.00
2023-04-27T06:23:34.217Z,1799.00
2023-04-27T06:24:34.217Z,1815.00
2023-04-27T06:25:34.216Z,1806.00
2023-04-27T06:26:34.232Z,1794.00
2023-04-27T06:27:34.171Z,1797.00
2023-04-27T06:28:34.241Z,1772.00
2023-04-27T06:29:34.182Z,1792.00
2023-04-27T06:30:34.175Z,1776.00
2023-04-27T06:31:34.209Z,1778.00
2023-04-27T06:32:34.189Z,1776.00
2023-04-27T06:33:34.108Z,1752.00
2023-04-27T06:34:34.137Z,1751.00
2023-04-27T06:35:34.610Z,1770.00
2023-04-27T06:36:34.099Z,1777.00
2023-04-27T06:37:34.111Z,1773.00
2023-04-27T06:38:34.114Z,1747.00
2023-04-27T06:39:34.114Z,1731.00
2023-04-27T06:40:34.123Z,1737.00
2023-04-27T06:41:34.083Z,1728.00
2023-04-27T06:42:34.071Z,1726.00
2023-04-27T06:43:34.086Z,1706.00
2023-04-27T06:44:34.037Z,1712.00
2023-04-27T06:45:34.029Z,1711.00
2023-04-27T06:46:34.074Z,1714.00
2023-04-27T06:47:33.998Z,1713.00
2023-04-27T06:48:34.058Z,1708.00
2023-04-27T06:49:34.033Z,1808.00
2023-04-27T06:50:34.036Z,1890.00
2023-04-27T06:51:34.039Z,1809.00
2023-04-27T06:52:34.012Z,1757.00
2023-04-27T06:53:34.093Z,1695.00
2023-04-27T06:54:34.013Z,1698.00
2023-04-27T06:55:34.016Z,1686.00
2023-04-27T06:56:33.970Z,1696.00
2023-04-27T06:57:33.987Z,1751.00
2023-04-27T06:58:33.972Z,1777.00
2023-04-27T06:59:33.996Z,1806.00
2023-04-27T07:00:34.622Z,1834.00
2023-04-27T07:01:34.211Z,1831.00
2023-04-27T07:02:34.052Z,1836.00
2023-04-27T07:03:34.098Z,1898.00
2023-04-27T07:04:34.027Z,1824.00
2023-04-27T07:05:33.982Z,1788.00
2023-04-27T07:06:34.146Z,1755.00
2023-04-27T07:07:34.350Z,1733.00
2023-04-27T07:08:34.021Z,1705.00
2023-04-27T07:09:34.308Z,1786.00
2023-04-27T07:10:34.156Z,1785.00
2023-04-27T07:11:34.136Z,1803.00
2023-04-27T07:12:34.158Z,1870.00
2023-04-27T07:13:34.189Z,1845.00
2023-04-27T07:14:34.252Z,1853.00
2023-04-27T07:15:34.298Z,1833.00
2023-04-27T07:16:34.455Z,1808.00
2023-04-27T07:17:34.425Z,1802.00
2023-04-27T07:18:34.481Z,1797.00
2023-04-27T07:19:34.494Z,1780.00
2023-04-27T07:20:34.539Z,1755.00
2023-04-27T07:21:34.650Z,1790.00
2023-04-27T07:22:34.657Z,1765.00
2023-04-27T07:23:34.729Z,1771.00
2023-04-27T07:24:34.780Z,1763.00
2023-04-27T07:25:34.839Z,1761.00
2023-04-27T07:26:35.162Z,1731.00
2023-04-27T07:27:34.925Z,1714.00
2023-04-27T07:28:35.006Z,1674.00
2023-04-27T07:29:35.058Z,1679.00
2023-04-27T07:30:35.102Z,1655.00
2023-04-27T07:31:35.182Z,1639.00
2023-04-27T07:32:35.338Z,1606.00
2023-04-27T07:33:35.230Z,1633.00
2023-04-27T07:34:49.034Z,1602.00
2023-04-27T07:35:36.313Z,1573.00
2023-04-27T07:36:35.320Z,1582.00
2023-04-27T07:37:35.333Z,1564.00
2023-04-27T07:38:35.283Z,1531.00
2023-04-27T07:39:35.277Z,1507.00
2023-04-27T07:40:35.297Z,1555.00
2023-04-27T07:41:35.266Z,1615.00
2023-04-27T07:42:35.271Z,1540.00
2023-04-27T07:43:35.335Z,1567.00
2023-04-27T07:44:35.324Z,1540.00
2023-04-27T07:45:35.373Z,1541.00
2023-04-27T12:17:30.748Z,500.00
2023-04-27T12:18:30.801Z,500.00
2023-04-27T12:19:30.748Z,500.00
2023-04-27T12:20:30.773Z,500.00
2023-04-27T12:21:30.859Z,500.00
2023-04-27T12:22:30.863Z,400.00
2023-04-27T12:23:30.837Z,400.00
2023-04-27T12:24:30.848Z,400.00
2023-04-27T12:25:30.860Z,400.00
2023-04-27T12:26:30.854Z,400.00
2023-04-27T12:27:30.835Z,400.00
2023-04-27T12:28:30.805Z,400.00
2023-04-27T12:29:30.844Z,400.00
2023-04-27T12:30:30.817Z,400.00
2023-04-27T12:31:30.828Z,400.00
2023-04-27T12:32:30.754Z,400.00
2023-04-27T12:33:30.799Z,400.00
2023-04-27T12:34:30.788Z,400.00
2023-04-27T12:35:30.760Z,400.00
2023-04-27T12:36:30.762Z,400.00
2023-04-27T12:37:30.758Z,400.00
2023-04-27T12:38:30.772Z,400.00
2023-04-27T12:39:30.704Z,400.00
2023-04-27T12:40:30.764Z,400.00
2023-04-27T12:41:30.691Z,400.00
2023-04-27T12:42:30.741Z,400.00
2023-04-27T12:43:30.691Z,400.00
2023-04-27T12:44:30.705Z,400.00
2023-04-27T12:45:30.690Z,422.00
2023-04-27T12:46:30.686Z,487.00
2023-04-27T12:48:30.737Z,500.00
2023-04-27T12:49:30.693Z,502.00
2023-04-27T12:50:30.710Z,500.00
2023-04-27T12:51:30.657Z,500.00
2023-04-27T12:52:30.638Z,514.00
2023-04-27T12:53:30.661Z,500.00
2023-04-27T12:54:30.645Z,512.00
2023-04-27T12:55:34.211Z,515.00
2023-04-27T12:56:30.632Z,513.00
2023-04-27T12:57:30.604Z,517.00
2023-04-27T12:58:30.654Z,526.00
2023-04-27T12:59:30.621Z,505.00
2023-04-27T13:00:30.613Z,493.00
2023-04-27T13:01:37.658Z,557.00
2023-04-27T13:02:30.932Z,529.00
2023-04-27T13:03:30.714Z,500.00
2023-04-27T13:04:30.816Z,491.00
2023-04-27T13:05:32.047Z,493.00
2023-04-27T13:06:30.586Z,492.00
2023-04-27T13:07:30.740Z,506.00
2023-04-27T13:08:30.532Z,506.00
2023-04-27T13:09:30.550Z,517.00
2023-04-27T13:10:30.585Z,524.00
2023-04-27T13:11:30.527Z,491.00
2023-04-27T13:12:30.523Z,531.00
2023-04-27T13:13:30.529Z,521.00
2023-04-27T13:14:30.532Z,548.00
2023-04-27T13:15:30.494Z,526.00
2023-04-27T13:16:30.694Z,504.00
2023-04-27T13:17:30.651Z,513.00
2023-04-27T13:18:32.255Z,520.00
2023-04-27T13:19:30.662Z,528.00
2023-04-27T13:20:30.688Z,509.00
2023-04-27T13:21:31.349Z,532.00
2023-04-27T13:22:30.694Z,525.00
2023-04-27T13:23:30.633Z,528.00
2023-04-27T13:24:30.654Z,510.00
2023-04-27T13:25:30.619Z,522.00
2023-04-27T13:26:30.599Z,572.00
2023-04-27T13:27:30.629Z,515.00
2023-04-27T13:28:30.650Z,500.00
2023-04-27T13:29:30.577Z,527.00
2023-04-27T13:30:30.602Z,544.00
2023-04-27T13:31:30.625Z,515.00
2023-04-27T13:32:30.660Z,565.00
2023-04-27T13:33:30.681Z,539.00
2023-04-27T13:34:30.605Z,559.00
2023-04-27T13:35:30.576Z,516.00
2023-04-27T13:36:30.585Z,499.00
2023-04-27T13:37:30.587Z,500.00
2023-04-27T13:38:30.540Z,548.00
2023-04-27T13:39:30.544Z,576.00
2023-04-27T13:40:30.614Z,586.00
2023-04-27T13:41:30.561Z,543.00
2023-04-27T13:42:30.516Z,566.00
2023-04-27T13:43:30.530Z,546.00
2023-04-27T13:44:30.542Z,594.00
2023-04-27T13:45:30.544Z,538.00
2023-04-27T13:46:30.574Z,537.00
2023-04-27T13:47:30.518Z,531.00
2023-04-27T13:48:30.570Z,542.00
2023-04-27T13:49:30.477Z,540.00
2023-04-27T13:50:30.484Z,519.00
2023-04-27T13:51:30.582Z,534.00
2023-04-27T13:52:30.624Z,508.00
2023-04-27T13:53:30.693Z,518.00
2023-04-27T13:54:30.746Z,541.00
2023-04-27T13:55:30.759Z,556.00
2023-04-27T13:56:31.334Z,540.00
2023-04-27T13:57:30.938Z,508.00
2023-04-27T13:58:30.935Z,512.00
2023-04-27T13:59:31.059Z,541.00
2023-04-27T14:00:31.190Z,524.00
2023-04-27T14:01:31.279Z,527.00
2023-04-27T14:02:31.330Z,546.00
2023-04-27T14:03:31.403Z,524.00
2023-04-27T14:04:31.469Z,505.00
2023-04-27T14:05:31.351Z,510.00
2023-04-27T14:06:31.396Z,528.00
2023-04-27T14:07:31.463Z,520.00
2023-04-27T14:08:31.518Z,504.00
2023-04-27T14:09:31.573Z,550.00
2023-04-27T14:10:31.717Z,524.00
2023-04-27T14:11:33.949Z,501.00
2023-04-27T14:12:32.725Z,503.00
2023-04-27T14:13:31.726Z,503.00
2023-04-27T14:14:31.699Z,503.00
2023-04-27T14:15:31.669Z,515.00
2023-04-27T14:16:31.630Z,585.00
2023-04-27T14:17:31.754Z,567.00
2023-04-27T14:18:32.667Z,574.00
2023-04-27T14:19:31.654Z,568.00
2023-04-27T14:20:31.656Z,578.00
2023-04-27T14:21:32.379Z,570.00
2023-04-27T14:22:31.750Z,543.00
2023-04-27T14:23:31.845Z,539.00
2023-04-27T14:24:31.928Z,544.00
2023-04-27T14:25:31.926Z,522.00
2023-04-27T14:26:31.997Z,530.00
2023-04-27T14:27:32.371Z,529.00
2023-04-27T14:28:32.118Z,548.00
2023-04-27T14:29:32.181Z,516.00
2023-04-27T14:30:32.296Z,556.00
2023-04-27T14:31:32.344Z,526.00
2023-04-27T14:32:32.379Z,505.00
2023-04-27T14:33:32.359Z,526.00
2023-04-27T14:34:32.366Z,524.00
2023-04-27T14:35:32.473Z,514.00
2023-04-27T14:36:32.547Z,521.00
2023-04-27T14:37:32.544Z,535.00
2023-04-27T14:38:32.609Z,559.00
2023-04-27T14:39:32.574Z,557.00
2023-04-27T14:40:32.675Z,527.00
2023-04-27T14:41:32.667Z,572.00
2023-04-27T14:42:32.888Z,532.00
2023-04-27T14:43:32.771Z,539.00
2023-04-27T14:44:32.848Z,522.00
2023-04-27T14:45:40.249Z,518.00
2023-04-27T14:46:33.891Z,493.00
2023-04-27T14:47:32.896Z,467.00
2023-04-27T14:48:32.824Z,464.00
2023-04-27T14:49:32.786Z,454.00
2023-04-27T14:50:32.821Z,449.00
2023-04-27T14:51:32.849Z,487.00
2023-04-27T14:52:32.828Z,505.00
2023-04-27T14:53:32.796Z,508.00
2023-04-27T14:54:32.767Z,501.00
2023-04-27T14:55:32.718Z,508.00
2023-04-27T14:56:32.786Z,508.00
2023-04-27T14:57:32.768Z,501.00
2023-04-27T14:58:32.714Z,507.00
2023-04-27T14:59:32.752Z,525.00
2023-04-27T15:00:32.705Z,501.00
2023-04-27T15:01:32.742Z,520.00
2023-04-27T15:02:34.247Z,510.00
2023-04-27T15:03:32.886Z,509.00
2023-04-27T15:04:32.758Z,523.00
2023-04-27T15:05:32.757Z,533.00
2023-04-27T15:06:32.749Z,506.00
2023-04-27T15:07:32.741Z,534.00
2023-04-27T15:08:34.324Z,514.00
2023-04-27T15:09:32.721Z,513.00
2023-04-27T15:10:32.750Z,503.00
2023-04-27T15:11:32.729Z,512.00
2023-04-27T15:12:32.718Z,519.00
2023-04-27T15:13:32.736Z,512.00
2023-04-27T15:14:32.738Z,510.00
2023-04-27T15:15:32.723Z,514.00
2023-04-27T15:16:32.768Z,502.00
2023-04-27T15:17:32.832Z,505.00
2023-04-27T15:18:32.718Z,500.00
2023-04-27T15:19:32.774Z,505.00
2023-04-27T15:20:32.776Z,506.00
2023-04-27T15:21:32.745Z,515.00
2023-04-27T15:22:32.761Z,510.00
2023-04-27T15:23:32.718Z,509.00
2023-04-27T15:24:32.778Z,500.00
2023-04-27T15:25:32.774Z,503.00
2023-04-27T15:26:32.789Z,505.00
2023-04-27T15:27:32.900Z,501.00
2023-04-27T15:28:32.805Z,515.00
2023-04-27T15:29:32.804Z,516.00
2023-04-27T15:30:32.793Z,500.00
2023-04-27T15:31:32.873Z,514.00
2023-04-27T15:32:32.885Z,503.00
2023-04-27T15:33:32.921Z,500.00
2023-04-27T15:34:32.823Z,507.00
2023-04-27T15:35:32.884Z,503.00
2023-04-27T15:36:32.848Z,500.00
2023-04-27T15:37:32.843Z,503.00
2023-04-27T15:38:32.890Z,500.00
2023-04-27T15:39:32.874Z,504.00
2023-04-27T15:40:32.918Z,513.00
2023-04-27T15:41:32.911Z,502.00
2023-04-27T15:42:32.926Z,505.00
2023-04-27T15:43:32.920Z,510.00
2023-04-27T15:44:32.925Z,525.00
2023-04-27T15:45:32.922Z,520.00
2023-04-27T15:46:33.046Z,520.00
2023-04-27T15:47:32.940Z,513.00
2023-04-27T15:48:33.438Z,529.00
2023-04-27T15:49:37.807Z,517.00
2023-04-27T15:50:33.947Z,518.00
2023-04-27T15:51:32.947Z,520.00
2023-04-27T15:52:32.959Z,528.00
2023-04-27T15:53:33.986Z,519.00
2023-04-27T15:54:33.929Z,523.00
2023-04-27T15:55:32.906Z,523.00
2023-04-27T15:56:32.918Z,515.00
2023-04-27T15:57:32.935Z,509.00
2023-04-27T15:58:32.884Z,527.00
2023-04-27T15:59:32.892Z,551.00
2023-04-27T16:00:32.950Z,535.00
2023-04-27T16:01:33.019Z,532.00
2023-04-27T16:02:32.962Z,542.00
2023-04-27T16:03:32.949Z,538.00
2023-04-27T16:04:32.934Z,538.00
2023-04-27T16:05:32.831Z,546.00
2023-04-27T16:06:32.851Z,538.00
2023-04-27T16:07:32.791Z,529.00
2023-04-27T16:08:33.411Z,542.00
2023-04-27T16:09:32.865Z,538.00
2023-04-27T16:10:32.796Z,532.00
2023-04-27T16:11:32.797Z,521.00
2023-04-27T16:12:32.773Z,519.00
2023-04-27T16:13:32.927Z,520.00
2023-04-27T16:14:32.816Z,527.00
2023-04-27T16:15:32.803Z,519.00
2023-04-27T16:16:32.840Z,508.00
2023-04-27T16:17:32.841Z,523.00
2023-04-27T16:18:32.923Z,522.00
2023-04-27T16:19:32.783Z,528.00
2023-04-27T16:20:35.055Z,527.00
2023-04-27T16:21:32.969Z,548.00
2023-04-27T16:22:32.744Z,531.00
2023-04-27T16:23:32.748Z,525.00
2023-04-27T16:24:32.732Z,533.00
2023-04-27T16:25:32.711Z,526.00
2023-04-27T16:26:32.688Z,545.00
2023-04-27T16:27:32.726Z,520.00
2023-04-27T16:28:32.924Z,523.00
2023-04-27T16:29:32.693Z,514.00
2023-04-27T16:30:32.697Z,534.00
2023-04-27T16:31:32.648Z,520.00
2023-04-27T16:32:34.514Z,514.00
2023-04-27T16:33:32.649Z,514.00
2023-04-27T16:34:32.648Z,511.00
2023-04-27T16:35:32.629Z,498.00
2023-04-27T16:36:32.644Z,489.00
2023-04-27T16:37:32.654Z,493.00
2023-04-27T16:38:32.653Z,500.00
2023-04-27T16:39:32.681Z,500.00
2023-04-27T16:40:32.589Z,510.00
2023-04-27T16:41:32.596Z,505.00
2023-04-27T16:42:32.606Z,504.00
2023-04-27T16:43:32.928Z,505.00
2023-04-27T16:44:32.626Z,506.00
2023-04-27T16:45:32.602Z,501.00
2023-04-27T16:46:32.620Z,509.00